sensor_id;sensor_type;location;lat;lon;timestamp;P1;durP1;ratioP1;P2;durP2;ratioP2
58972;SDS011;44750;52.040;7.472;2022-12-29T00:02:44;1.63;;;1.13;;
58972;SDS011;44750;52.040;7.472;2022-12-29T00:07:44;0.77;;;0.57;;
58972;SDS011;44750;52.040;7.472;2022-12-29T00:12:44;1.58;;;1.10;;
58972;SDS011;44750;52.040;7.472;2022-12-29T00:17:44;0.70;;;0.70;;
58972;SDS011;44750;52.040;7.472;2022-12-29T00:22:45;0.80;;;0.80;;
58972;SDS011;44750;52.040;7.472;2022-12-29T00:27:46;0.95;;;0.75;;
58972;SDS011;44750;52.040;7.472;2022-12-29T00:32:46;1.70;;;1.27;;
58972;SDS011;44750;52.040;7.472;2022-12-29T00:37:46;4.03;;;1.23;;
58972;SDS011;44750;52.040;7.472;2022-12-29T00:42:47;0.88;;;0.73;;
58972;SDS011;44750;52.040;7.472;2022-12-29T00:47:48;0.95;;;0.60;;
58972;SDS011;44750;52.040;7.472;2022-12-29T00:52:48;0.80;;;0.60;;
58972;SDS011;44750;52.040;7.472;2022-12-29T00:57:48;0.82;;;0.75;;
58972;SDS011;44750;52.040;7.472;2022-12-29T01:02:48;0.75;;;0.55;;
58972;SDS011;44750;52.040;7.472;2022-12-29T01:07:48;0.77;;;0.77;;
58972;SDS011;44750;52.040;7.472;2022-12-29T01:12:49;0.55;;;0.52;;
58972;SDS011;44750;52.040;7.472;2022-12-29T01:17:49;0.50;;;0.40;;
58972;SDS011;44750;52.040;7.472;2022-12-29T01:22:49;0.57;;;0.52;;
58972;SDS011;44750;52.040;7.472;2022-12-29T01:27:49;0.40;;;0.30;;
58972;SDS011;44750;52.040;7.472;2022-12-29T01:32:49;0.40;;;0.40;;
58972;SDS011;44750;52.040;7.472;2022-12-29T01:37:50;0.90;;;0.52;;
58972;SDS011;44750;52.040;7.472;2022-12-29T01:42:50;1.52;;;0.65;;
58972;SDS011;44750;52.040;7.472;2022-12-29T01:47:55;0.40;;;0.40;;
58972;SDS011;44750;52.040;7.472;2022-12-29T01:53:00;0.40;;;0.40;;
58972;SDS011;44750;52.040;7.472;2022-12-29T01:58:05;1.35;;;0.40;;
58972;SDS011;44750;52.040;7.472;2022-12-29T02:03:06;0.52;;;0.43;;
58972;SDS011;44750;52.040;7.472;2022-12-29T02:08:09;0.77;;;0.50;;
58972;SDS011;44750;52.040;7.472;2022-12-29T02:13:11;1.20;;;0.80;;
58972;SDS011;44750;52.040;7.472;2022-12-29T02:23:46;0.45;;;0.38;;
58972;SDS011;44750;52.040;7.472;2022-12-29T02:29:18;0.60;;;0.60;;
58972;SDS011;44750;52.040;7.472;2022-12-29T02:35:06;0.40;;;0.40;;
58972;SDS011;44750;52.040;7.472;2022-12-29T02:40:25;0.30;;;0.30;;
58972;SDS011;44750;52.040;7.472;2022-12-29T02:45:51;0.22;;;0.22;;
58972;SDS011;44750;52.040;7.472;2022-12-29T02:51:10;0.40;;;0.40;;
58972;SDS011;44750;52.040;7.472;2022-12-29T02:56:19;0.47;;;0.40;;
58972;SDS011;44750;52.040;7.472;2022-12-29T03:01:37;0.20;;;0.20;;
58972;SDS011;44750;52.040;7.472;2022-12-29T03:06:49;0.20;;;0.20;;
58972;SDS011;44750;52.040;7.472;2022-12-29T03:12:17;0.40;;;0.40;;
58972;SDS011;44750;52.040;7.472;2022-12-29T03:17:33;0.98;;;0.60;;
58972;SDS011;44750;52.040;7.472;2022-12-29T03:22:41;0.30;;;0.30;;
58972;SDS011;44750;52.040;7.472;2022-12-29T03:32:50;0.30;;;0.30;;
58972;SDS011;44750;52.040;7.472;2022-12-29T03:38:03;0.20;;;0.20;;
58972;SDS011;44750;52.040;7.472;2022-12-29T03:43:09;0.63;;;0.40;;
58972;SDS011;44750;52.040;7.472;2022-12-29T03:48:10;0.30;;;0.30;;
58972;SDS011;44750;52.040;7.472;2022-12-29T03:53:10;0.50;;;0.40;;
58972;SDS011;44750;52.040;7.472;2022-12-29T03:58:10;0.63;;;0.63;;
58972;SDS011;44750;52.040;7.472;2022-12-29T04:03:11;0.35;;;0.30;;
58972;SDS011;44750;52.040;7.472;2022-12-29T04:08:11;0.60;;;0.40;;
58972;SDS011;44750;52.040;7.472;2022-12-29T04:13:11;0.95;;;0.68;;
58972;SDS011;44750;52.040;7.472;2022-12-29T04:18:12;0.30;;;0.30;;
58972;SDS011;44750;52.040;7.472;2022-12-29T04:23:12;1.95;;;0.47;;
58972;SDS011;44750;52.040;7.472;2022-12-29T04:28:13;1.25;;;0.68;;
58972;SDS011;44750;52.040;7.472;2022-12-29T04:33:14;0.60;;;0.45;;
58972;SDS011;44750;52.040;7.472;2022-12-29T04:38:14;0.27;;;0.27;;
58972;SDS011;44750;52.040;7.472;2022-12-29T04:43:15;0.20;;;0.20;;
58972;SDS011;44750;52.040;7.472;2022-12-29T04:48:16;1.17;;;0.47;;
58972;SDS011;44750;52.040;7.472;2022-12-29T04:53:17;0.15;;;0.15;;
58972;SDS011;44750;52.040;7.472;2022-12-29T04:58:18;0.32;;;0.32;;
58972;SDS011;44750;52.040;7.472;2022-12-29T05:03:20;0.47;;;0.35;;
58972;SDS011;44750;52.040;7.472;2022-12-29T05:08:20;0.28;;;0.20;;
58972;SDS011;44750;52.040;7.472;2022-12-29T05:13:20;0.20;;;0.20;;
58972;SDS011;44750;52.040;7.472;2022-12-29T05:18:21;0.77;;;0.23;;
58972;SDS011;44750;52.040;7.472;2022-12-29T05:23:21;0.10;;;0.10;;
58972;SDS011;44750;52.040;7.472;2022-12-29T05:28:21;0.20;;;0.20;;
58972;SDS011;44750;52.040;7.472;2022-12-29T05:33:22;0.20;;;0.20;;
58972;SDS011;44750;52.040;7.472;2022-12-29T05:38:22;0.30;;;0.30;;
58972;SDS011;44750;52.040;7.472;2022-12-29T05:43:22;0.63;;;0.50;;
58972;SDS011;44750;52.040;7.472;2022-12-29T05:48:22;0.20;;;0.20;;
58972;SDS011;44750;52.040;7.472;2022-12-29T05:53:23;0.20;;;0.20;;
58972;SDS011;44750;52.040;7.472;2022-12-29T05:58:23;0.20;;;0.20;;
58972;SDS011;44750;52.040;7.472;2022-12-29T06:03:23;0.43;;;0.35;;
58972;SDS011;44750;52.040;7.472;2022-12-29T06:08:23;0.60;;;0.40;;
58972;SDS011;44750;52.040;7.472;2022-12-29T06:13:24;0.30;;;0.23;;
58972;SDS011;44750;52.040;7.472;2022-12-29T06:18:24;0.25;;;0.25;;
58972;SDS011;44750;52.040;7.472;2022-12-29T06:23:24;0.20;;;0.20;;
58972;SDS011;44750;52.040;7.472;2022-12-29T06:28:24;0.68;;;0.43;;
58972;SDS011;44750;52.040;7.472;2022-12-29T06:33:25;15.90;;;0.68;;
58972;SDS011;44750;52.040;7.472;2022-12-29T06:38:25;0.28;;;0.28;;
58972;SDS011;44750;52.040;7.472;2022-12-29T06:43:25;0.60;;;0.30;;
58972;SDS011;44750;52.040;7.472;2022-12-29T06:48:25;0.20;;;0.20;;
58972;SDS011;44750;52.040;7.472;2022-12-29T06:53:25;0.68;;;0.50;;
58972;SDS011;44750;52.040;7.472;2022-12-29T06:58:26;5.35;;;1.00;;
58972;SDS011;44750;52.040;7.472;2022-12-29T07:03:26;0.50;;;0.30;;
58972;SDS011;44750;52.040;7.472;2022-12-29T07:08:26;1.13;;;0.63;;
58972;SDS011;44750;52.040;7.472;2022-12-29T07:13:29;0.43;;;0.43;;
58972;SDS011;44750;52.040;7.472;2022-12-29T07:18:29;0.20;;;0.20;;
58972;SDS011;44750;52.040;7.472;2022-12-29T07:23:29;2.38;;;0.45;;
58972;SDS011;44750;52.040;7.472;2022-12-29T07:28:30;0.30;;;0.30;;
58972;SDS011;44750;52.040;7.472;2022-12-29T07:33:31;0.85;;;0.50;;
58972;SDS011;44750;52.040;7.472;2022-12-29T07:38:32;4.68;;;0.35;;
58972;SDS011;44750;52.040;7.472;2022-12-29T07:43:32;0.45;;;0.43;;
58972;SDS011;44750;52.040;7.472;2022-12-29T07:48:33;0.30;;;0.30;;
58972;SDS011;44750;52.040;7.472;2022-12-29T07:53:33;0.95;;;0.73;;
58972;SDS011;44750;52.040;7.472;2022-12-29T07:58:33;0.32;;;0.32;;
58972;SDS011;44750;52.040;7.472;2022-12-29T08:03:34;0.40;;;0.30;;
58972;SDS011;44750;52.040;7.472;2022-12-29T08:08:34;0.40;;;0.40;;
58972;SDS011;44750;52.040;7.472;2022-12-29T08:13:34;0.52;;;0.35;;
58972;SDS011;44750;52.040;7.472;2022-12-29T08:18:34;0.52;;;0.52;;
58972;SDS011;44750;52.040;7.472;2022-12-29T08:23:34;0.45;;;0.43;;
58972;SDS011;44750;52.040;7.472;2022-12-29T08:28:35;1.20;;;0.75;;
58972;SDS011;44750;52.040;7.472;2022-12-29T08:33:35;2.13;;;0.52;;
58972;SDS011;44750;52.040;7.472;2022-12-29T08:38:35;0.82;;;0.40;;
58972;SDS011;44750;52.040;7.472;2022-12-29T08:43:35;0.45;;;0.28;;
58972;SDS011;44750;52.040;7.472;2022-12-29T08:48:36;0.40;;;0.40;;
58972;SDS011;44750;52.040;7.472;2022-12-29T08:53:36;6.70;;;0.85;;
58972;SDS011;44750;52.040;7.472;2022-12-29T08:58:36;0.40;;;0.40;;
58972;SDS011;44750;52.040;7.472;2022-12-29T09:03:37;0.40;;;0.40;;
58972;SDS011;44750;52.040;7.472;2022-12-29T09:08:37;0.40;;;0.30;;
58972;SDS011;44750;52.040;7.472;2022-12-29T09:13:37;2.80;;;1.05;;
58972;SDS011;44750;52.040;7.472;2022-12-29T09:18:37;1.90;;;0.82;;
58972;SDS011;44750;52.040;7.472;2022-12-29T09:23:38;0.45;;;0.40;;
58972;SDS011;44750;52.040;7.472;2022-12-29T09:28:39;1.45;;;0.77;;
58972;SDS011;44750;52.040;7.472;2022-12-29T09:33:39;0.30;;;0.30;;
58972;SDS011;44750;52.040;7.472;2022-12-29T09:38:40;0.80;;;0.65;;
58972;SDS011;44750;52.040;7.472;2022-12-29T09:43:50;0.35;;;0.35;;
58972;SDS011;44750;52.040;7.472;2022-12-29T09:54:44;1.15;;;0.38;;
58972;SDS011;44750;52.040;7.472;2022-12-29T10:00:01;0.35;;;0.30;;
58972;SDS011;44750;52.040;7.472;2022-12-29T10:05:20;3.35;;;0.77;;
58972;SDS011;44750;52.040;7.472;2022-12-29T10:10:43;0.93;;;0.70;;
58972;SDS011;44750;52.040;7.472;2022-12-29T10:21:17;2.05;;;0.75;;
58972;SDS011;44750;52.040;7.472;2022-12-29T10:26:30;1.15;;;0.50;;
58972;SDS011;44750;52.040;7.472;2022-12-29T10:31:41;0.70;;;0.52;;
58972;SDS011;44750;52.040;7.472;2022-12-29T10:36:46;0.55;;;0.50;;
58972;SDS011;44750;52.040;7.472;2022-12-29T10:41:54;0.52;;;0.40;;
58972;SDS011;44750;52.040;7.472;2022-12-29T10:47:06;1.10;;;0.50;;
58972;SDS011;44750;52.040;7.472;2022-12-29T10:52:11;1.33;;;0.80;;
58972;SDS011;44750;52.040;7.472;2022-12-29T10:57:22;0.80;;;0.65;;
58972;SDS011;44750;52.040;7.472;2022-12-29T11:02:45;0.82;;;0.75;;
58972;SDS011;44750;52.040;7.472;2022-12-29T11:08:10;3.05;;;0.63;;
58972;SDS011;44750;52.040;7.472;2022-12-29T11:23:34;1.17;;;0.63;;
58972;SDS011;44750;52.040;7.472;2022-12-29T11:28:41;0.90;;;0.60;;
58972;SDS011;44750;52.040;7.472;2022-12-29T11:33:45;3.28;;;1.27;;
58972;SDS011;44750;52.040;7.472;2022-12-29T11:38:46;0.43;;;0.30;;
58972;SDS011;44750;52.040;7.472;2022-12-29T11:43:49;0.52;;;0.43;;
58972;SDS011;44750;52.040;7.472;2022-12-29T11:48:51;10.32;;;0.82;;
58972;SDS011;44750;52.040;7.472;2022-12-29T11:53:53;11.43;;;0.52;;
58972;SDS011;44750;52.040;7.472;2022-12-29T11:58:56;0.30;;;0.30;;
58972;SDS011;44750;52.040;7.472;2022-12-29T12:08:59;0.40;;;0.40;;
58972;SDS011;44750;52.040;7.472;2022-12-29T12:14:06;1.13;;;0.50;;
58972;SDS011;44750;52.040;7.472;2022-12-29T12:30:01;0.57;;;0.50;;
58972;SDS011;44750;52.040;7.472;2022-12-29T12:35:05;0.80;;;0.80;;
58972;SDS011;44750;52.040;7.472;2022-12-29T12:50:52;0.32;;;0.32;;
58972;SDS011;44750;52.040;7.472;2022-12-29T12:56:01;0.50;;;0.50;;
58972;SDS011;44750;52.040;7.472;2022-12-29T13:11:31;2.17;;;0.73;;
58972;SDS011;44750;52.040;7.472;2022-12-29T13:22:17;2.45;;;0.88;;
58972;SDS011;44750;52.040;7.472;2022-12-29T13:33:20;1.42;;;0.88;;
58972;SDS011;44750;52.040;7.472;2022-12-29T13:43:45;1.88;;;0.60;;
58972;SDS011;44750;52.040;7.472;2022-12-29T13:48:58;0.60;;;0.60;;
58972;SDS011;44750;52.040;7.472;2022-12-29T13:59:54;4.97;;;1.30;;
58972;SDS011;44750;52.040;7.472;2022-12-29T14:10:04;3.15;;;1.02;;
58972;SDS011;44750;52.040;7.472;2022-12-29T14:20:21;3.35;;;1.40;;
58972;SDS011;44750;52.040;7.472;2022-12-29T14:30:57;1.70;;;1.05;;
58972;SDS011;44750;52.040;7.472;2022-12-29T14:36:18;1.02;;;1.00;;
58972;SDS011;44750;52.040;7.472;2022-12-29T14:41:24;1.20;;;1.00;;
58972;SDS011;44750;52.040;7.472;2022-12-29T14:46:43;2.15;;;1.23;;
58972;SDS011;44750;52.040;7.472;2022-12-29T14:51:45;0.68;;;0.60;;
58972;SDS011;44750;52.040;7.472;2022-12-29T14:56:47;2.35;;;1.23;;
58972;SDS011;44750;52.040;7.472;2022-12-29T15:01:50;1.00;;;0.80;;
58972;SDS011;44750;52.040;7.472;2022-12-29T15:11:55;1.58;;;0.73;;
58972;SDS011;44750;52.040;7.472;2022-12-29T15:17:26;3.42;;;1.05;;
58972;SDS011;44750;52.040;7.472;2022-12-29T15:22:29;1.65;;;1.00;;
58972;SDS011;44750;52.040;7.472;2022-12-29T15:27:30;6.78;;;0.73;;
58972;SDS011;44750;52.040;7.472;2022-12-29T15:32:39;2.45;;;0.80;;
58972;SDS011;44750;52.040;7.472;2022-12-29T15:37:42;0.90;;;0.60;;
58972;SDS011;44750;52.040;7.472;2022-12-29T15:43:16;0.82;;;0.60;;
58972;SDS011;44750;52.040;7.472;2022-12-29T15:48:18;1.08;;;0.63;;
58972;SDS011;44750;52.040;7.472;2022-12-29T15:58:31;1.75;;;0.88;;
58972;SDS011;44750;52.040;7.472;2022-12-29T16:03:40;1.38;;;1.10;;
58972;SDS011;44750;52.040;7.472;2022-12-29T16:08:41;1.48;;;0.98;;
58972;SDS011;44750;52.040;7.472;2022-12-29T16:13:41;1.40;;;0.90;;
58972;SDS011;44750;52.040;7.472;2022-12-29T16:18:41;3.38;;;1.50;;
58972;SDS011;44750;52.040;7.472;2022-12-29T16:23:42;2.92;;;1.70;;
58972;SDS011;44750;52.040;7.472;2022-12-29T16:28:47;4.68;;;1.92;;
58972;SDS011;44750;52.040;7.472;2022-12-29T16:33:51;1.17;;;0.60;;
58972;SDS011;44750;52.040;7.472;2022-12-29T16:39:15;0.57;;;0.57;;
58972;SDS011;44750;52.040;7.472;2022-12-29T16:44:20;0.68;;;0.57;;
58972;SDS011;44750;52.040;7.472;2022-12-29T16:49:22;1.13;;;0.85;;
58972;SDS011;44750;52.040;7.472;2022-12-29T16:54:33;3.45;;;1.00;;
58972;SDS011;44750;52.040;7.472;2022-12-29T16:59:37;0.82;;;0.77;;
58972;SDS011;44750;52.040;7.472;2022-12-29T17:04:39;1.65;;;0.93;;
58972;SDS011;44750;52.040;7.472;2022-12-29T17:09:40;1.88;;;1.33;;
58972;SDS011;44750;52.040;7.472;2022-12-29T17:19:49;3.38;;;1.30;;
58972;SDS011;44750;52.040;7.472;2022-12-29T17:24:52;7.60;;;1.25;;
58972;SDS011;44750;52.040;7.472;2022-12-29T17:30:03;3.50;;;0.90;;
58972;SDS011;44750;52.040;7.472;2022-12-29T17:35:13;0.90;;;0.68;;
58972;SDS011;44750;52.040;7.472;2022-12-29T17:40:15;0.85;;;0.40;;
58972;SDS011;44750;52.040;7.472;2022-12-29T17:45:25;1.33;;;0.83;;
58972;SDS011;44750;52.040;7.472;2022-12-29T17:50:28;1.25;;;0.80;;
58972;SDS011;44750;52.040;7.472;2022-12-29T17:55:29;0.22;;;0.22;;
58972;SDS011;44750;52.040;7.472;2022-12-29T18:00:30;0.68;;;0.60;;
58972;SDS011;44750;52.040;7.472;2022-12-29T18:05:30;0.57;;;0.57;;
58972;SDS011;44750;52.040;7.472;2022-12-29T18:10:31;1.45;;;0.82;;
58972;SDS011;44750;52.040;7.472;2022-12-29T18:15:32;1.20;;;0.95;;
58972;SDS011;44750;52.040;7.472;2022-12-29T18:20:35;1.33;;;1.00;;
58972;SDS011;44750;52.040;7.472;2022-12-29T18:25:39;2.42;;;1.30;;
58972;SDS011;44750;52.040;7.472;2022-12-29T18:30:42;1.55;;;1.20;;
58972;SDS011;44750;52.040;7.472;2022-12-29T18:35:54;1.27;;;1.10;;
58972;SDS011;44750;52.040;7.472;2022-12-29T18:40:56;2.10;;;0.77;;
58972;SDS011;44750;52.040;7.472;2022-12-29T18:45:57;0.90;;;0.70;;
58972;SDS011;44750;52.040;7.472;2022-12-29T18:50:57;2.60;;;0.82;;
58972;SDS011;44750;52.040;7.472;2022-12-29T18:55:57;0.95;;;0.70;;
58972;SDS011;44750;52.040;7.472;2022-12-29T19:00:58;0.90;;;0.65;;
58972;SDS011;44750;52.040;7.472;2022-12-29T19:05:58;5.93;;;1.75;;
58972;SDS011;44750;52.040;7.472;2022-12-29T19:11:01;3.15;;;1.50;;
58972;SDS011;44750;52.040;7.472;2022-12-29T19:16:01;5.53;;;1.63;;
58972;SDS011;44750;52.040;7.472;2022-12-29T19:21:01;5.43;;;1.17;;
58972;SDS011;44750;52.040;7.472;2022-12-29T19:26:02;1.58;;;0.93;;
58972;SDS011;44750;52.040;7.472;2022-12-29T19:31:02;2.08;;;0.80;;
58972;SDS011;44750;52.040;7.472;2022-12-29T19:36:02;1.13;;;0.90;;
58972;SDS011;44750;52.040;7.472;2022-12-29T19:41:05;8.50;;;0.95;;
58972;SDS011;44750;52.040;7.472;2022-12-29T19:46:07;1.50;;;1.00;;
58972;SDS011;44750;52.040;7.472;2022-12-29T19:51:13;2.88;;;1.50;;
58972;SDS011;44750;52.040;7.472;2022-12-29T19:56:14;0.80;;;0.60;;
58972;SDS011;44750;52.040;7.472;2022-12-29T20:01:16;0.82;;;0.70;;
58972;SDS011;44750;52.040;7.472;2022-12-29T20:06:19;2.10;;;1.05;;
58972;SDS011;44750;52.040;7.472;2022-12-29T20:11:19;2.33;;;1.13;;
58972;SDS011;44750;52.040;7.472;2022-12-29T20:16:20;2.33;;;0.95;;
58972;SDS011;44750;52.040;7.472;2022-12-29T20:21:21;2.58;;;1.50;;
58972;SDS011;44750;52.040;7.472;2022-12-29T20:26:26;1.30;;;1.20;;
58972;SDS011;44750;52.040;7.472;2022-12-29T20:31:29;2.50;;;1.73;;
58972;SDS011;44750;52.040;7.472;2022-12-29T20:36:31;1.13;;;1.00;;
58972;SDS011;44750;52.040;7.472;2022-12-29T20:41:34;0.65;;;0.57;;
58972;SDS011;44750;52.040;7.472;2022-12-29T20:46:34;2.47;;;1.35;;
58972;SDS011;44750;52.040;7.472;2022-12-29T20:51:35;3.03;;;1.92;;
58972;SDS011;44750;52.040;7.472;2022-12-29T20:56:35;10.85;;;2.25;;
58972;SDS011;44750;52.040;7.472;2022-12-29T21:01:35;1.90;;;1.08;;
58972;SDS011;44750;52.040;7.472;2022-12-29T21:06:36;5.22;;;1.65;;
58972;SDS011;44750;52.040;7.472;2022-12-29T21:11:36;2.38;;;1.50;;
58972;SDS011;44750;52.040;7.472;2022-12-29T21:16:37;3.50;;;1.70;;
58972;SDS011;44750;52.040;7.472;2022-12-29T21:21:37;2.70;;;1.20;;
58972;SDS011;44750;52.040;7.472;2022-12-29T21:26:37;6.15;;;1.88;;
58972;SDS011;44750;52.040;7.472;2022-12-29T21:31:37;1.27;;;0.88;;
58972;SDS011;44750;52.040;7.472;2022-12-29T21:36:38;1.60;;;1.05;;
58972;SDS011;44750;52.040;7.472;2022-12-29T21:41:38;4.32;;;0.85;;
58972;SDS011;44750;52.040;7.472;2022-12-29T21:46:39;2.63;;;1.52;;
58972;SDS011;44750;52.040;7.472;2022-12-29T21:51:40;10.25;;;1.83;;
58972;SDS011;44750;52.040;7.472;2022-12-29T21:56:40;1.88;;;1.02;;
58972;SDS011;44750;52.040;7.472;2022-12-29T22:01:40;9.65;;;1.02;;
58972;SDS011;44750;52.040;7.472;2022-12-29T22:06:40;9.77;;;1.08;;
58972;SDS011;44750;52.040;7.472;2022-12-29T22:11:41;3.58;;;1.13;;
58972;SDS011;44750;52.040;7.472;2022-12-29T22:16:41;6.17;;;1.60;;
58972;SDS011;44750;52.040;7.472;2022-12-29T22:21:41;2.03;;;0.98;;
58972;SDS011;44750;52.040;7.472;2022-12-29T22:26:41;1.27;;;0.75;;
58972;SDS011;44750;52.040;7.472;2022-12-29T22:31:42;2.08;;;1.15;;
58972;SDS011;44750;52.040;7.472;2022-12-29T22:36:42;0.85;;;0.70;;
58972;SDS011;44750;52.040;7.472;2022-12-29T22:41:42;0.70;;;0.68;;
58972;SDS011;44750;52.040;7.472;2022-12-29T22:46:42;1.35;;;0.80;;
58972;SDS011;44750;52.040;7.472;2022-12-29T22:51:44;3.55;;;1.73;;
58972;SDS011;44750;52.040;7.472;2022-12-29T22:56:46;2.53;;;1.17;;
58972;SDS011;44750;52.040;7.472;2022-12-29T23:01:46;10.93;;;2.22;;
58972;SDS011;44750;52.040;7.472;2022-12-29T23:06:46;1.10;;;0.80;;
58972;SDS011;44750;52.040;7.472;2022-12-29T23:11:47;1.08;;;0.98;;
58972;SDS011;44750;52.040;7.472;2022-12-29T23:16:47;2.45;;;1.27;;
58972;SDS011;44750;52.040;7.472;2022-12-29T23:21:48;2.47;;;1.38;;
58972;SDS011;44750;52.040;7.472;2022-12-29T23:26:48;1.70;;;0.90;;
58972;SDS011;44750;52.040;7.472;2022-12-29T23:31:48;2.17;;;0.70;;
58972;SDS011;44750;52.040;7.472;2022-12-29T23:36:48;1.08;;;0.70;;
58972;SDS011;44750;52.040;7.472;2022-12-29T23:41:49;13.43;;;1.17;;
58972;SDS011;44750;52.040;7.472;2022-12-29T23:46:49;0.93;;;0.73;;
58972;SDS011;44750;52.040;7.472;2022-12-29T23:51:50;1.15;;;0.70;;
58972;SDS011;44750;52.040;7.472;2022-12-29T23:56:50;1.05;;;0.82;;
